Terminal Aerodrome Forecast
Issued by NWS Cleveland, OH

Home | Current Version | Previous Version | Graphics & Text | Print | Product List | Glossary On
Versions: 1 2 3 4 5 6 7 8 9 10 11 12 13 14 15 16 17 18 19 20
179
FTUS41 KCLE 272337
TAFTOL
TAF
KTOL 272337Z 2800/2824 25015G25KT P6SM OVC025
     FM280300 25012KT P6SM OVC025
     FM281400 18008KT P6SM SCT035 OVC120=

USA.gov is the U.S. government's official web portal to all federal, state and local government web resources and services.